Albrook Marcos A. Gelabert International Airport

Airport
ICAO code: 
MPMG
IATA Code: 
PAC
Summary
ICAO Region: 
CARSAM
Territory: 
Location: 
Panama City, Panama
Serving: 
Panama City
Elevation: 
30 ft
Coordinates: 
Aerial View: 
8° 58' 23.002" N, 79° 33' 27" W
Metar
Observation
MPMG 270800Z AUTO VRB02KT //// R01///// // OVC100/// 23/23 Q1010
Station
Marcos A. Gelabert
Date/Time
2021-11-27 08:00:00
Wind speed
02 kts
Lowest cloud amount
overcast
Temperature
1°C
Dew point
0°C
Humidity
93%
QNH
1010 hPa
Weather condition
n/a

Albrook "Marcos A. Gelabert" International Airport is a public airport located 1.5 km west of the center of Panama City, Panama.

Climatology

Tropical savannah climate (Köppen climate classification Aw)

Runways

Designator Length Width Surface Rops
18/36 1800 30 ASP No/No
Airport map: 
Aerial View: 

SKYbrary Partners:

Safety knowledge contributed by: